METAR Data
IDs: Format: Raw Decoded Include TAF

Data at: 1922 UTC 14 Dec 2018

KECU 141915Z AUTO 32019G29KT 10SM CLR 11/M03 A3021 RMK AO2
KECU 141855Z AUTO 31019G29KT 10SM CLR 11/M03 A3022 RMK AO2
KECU 141835Z AUTO 32017G28KT 10SM CLR 11/M03 A3022 RMK AO2
KECU 141815Z AUTO 32022G30KT 10SM CLR 10/M03 A3022 RMK AO2
KECU 141755Z AUTO 32020G28KT 10SM CLR 09/M03 A3023 RMK AO2
KECU 141735Z AUTO 33022G28KT 10SM FEW034 09/M04 A3023 RMK AO2
KECU 141715Z AUTO 32020G27KT 10SM BKN026 08/M05 A3024 RMK AO2
KECU 141655Z AUTO 32019G26KT 10SM OVC025 07/M05 A3024 RMK AO2
KECU 141635Z AUTO 32018G29KT 10SM BKN028 BKN034 07/M06 A3025 RMK AO2
KECU 141615Z AUTO 33023G33KT 10SM CLR 06/M07 A3025 RMK AO2
KECU 141555Z AUTO 32019G29KT 10SM CLR 06/M07 A3023 RMK AO2
KECU 141535Z AUTO 32023KT 10SM CLR 06/M08 A3022 RMK AO2
KECU 141515Z AUTO 32016G33KT 10SM CLR 05/M08 A3021 RMK AO2
KECU 141455Z AUTO 32021G27KT 10SM CLR 04/M09 A3020 RMK AO2
KECU 141435Z AUTO 31018G27KT 10SM CLR 04/M08 A3019 RMK AO2
KECU 141415Z AUTO 32019G27KT 10SM CLR 03/M08 A3018 RMK AO2
KECU 141355Z AUTO 32017G22KT 10SM CLR 03/M08 A3017 RMK AO2
KECU 141335Z AUTO 32018G23KT 10SM CLR 03/M08 A3016 RMK AO2
KECU 141315Z AUTO 31017G26KT 10SM FEW120 03/M07 A3016 RMK AO2
KECU 141255Z AUTO 31015G24KT 10SM FEW100 SCT120 03/M07 A3015 RMK AO2
KECU 141235Z AUTO 31016G23KT 10SM SCT110 03/M07 A3014 RMK AO2
KECU 141215Z AUTO 32016G21KT 10SM CLR 03/M07 A3013 RMK AO2 LTG DSNT NE
KECU 141155Z AUTO 32017G24KT 10SM CLR 03/M07 A3012 RMK AO2
KECU 141135Z AUTO 32017KT 10SM CLR 03/M07 A3012 RMK AO2
KECU 141115Z AUTO 31017G23KT 10SM CLR 03/M07 A3011 RMK AO2
KECU 141055Z AUTO 32017G26KT 10SM FEW100 03/M07 A3011 RMK AO2
KECU 141035Z AUTO 32018G27KT 10SM FEW100 03/M07 A3011 RMK AO2
KECU 141015Z AUTO 32017G27KT 10SM CLR 03/M07 A3011 RMK AO2
KECU 140955Z AUTO 32019G28KT 10SM CLR 04/M06 A3010 RMK AO2
KECU 140935Z AUTO 31018G27KT 10SM CLR 04/M06 A3010 RMK AO2
KECU 140915Z AUTO 32018G29KT 10SM BKN100 04/M06 A3010 RMK AO2
KECU 140855Z AUTO 31019G25KT 10SM BKN100 04/M06 A3010 RMK AO2
KECU 140835Z AUTO 31018G28KT 10SM CLR 04/M06 A3009 RMK AO2
KECU 140815Z AUTO 31019G27KT 10SM BKN090 05/M06 A3009 RMK AO2
KECU 140755Z AUTO 32018G30KT 10SM BKN090 05/M07 A3009 RMK AO2
KECU 140735Z AUTO 31020G30KT 10SM FEW080 SCT095 05/M07 A3008 RMK AO2
KECU 140715Z AUTO 31017G24KT 10SM CLR 05/M07 A3009 RMK AO2
KECU 140655Z AUTO 31018G29KT 10SM CLR 06/M07 A3009 RMK AO2
KECU 140635Z AUTO 32019G31KT 10SM FEW039 FEW045 FEW100 06/M07 A3008 RMK AO2
KECU 140615Z AUTO 32019G36KT 10SM FEW039 FEW044 06/M07 A3008 RMK AO2
KECU 140555Z AUTO 31025KT 10SM FEW039 FEW045 06/M07 A3007 RMK AO2
KECU 140535Z AUTO 32021G31KT 10SM FEW042 FEW048 07/M07 A3006 RMK AO2
KECU 140515Z AUTO 31020G28KT 10SM FEW043 FEW048 SCT090 07/M06 A3006 RMK AO2
KECU 140455Z AUTO 31021G28KT 10SM BKN075 OVC090 06/M05 A3006 RMK AO2
KECU 140435Z AUTO 30010KT 10SM SCT075 OVC090 04/M01 A3007 RMK AO2
KECU 140415Z AUTO 31012KT 10SM BKN075 OVC090 05/M01 A3007 RMK AO2
KECU 140355Z AUTO 32013G20KT 10SM FEW050 SCT075 OVC090 05/M01 A3007 RMK AO2
KECU 140335Z AUTO 33015G21KT 10SM FEW080 OVC090 05/M00 A3007 RMK AO2
KECU 140315Z AUTO 33017G28KT 10SM BKN075 OVC090 05/00 A3007 RMK AO2
KECU 140255Z AUTO 34014G22KT 10SM FEW048 FEW075 OVC095 05/M00 A3007 RMK AO2
KECU 140235Z AUTO 33016G28KT 10SM SCT050 BKN075 OVC090 05/M00 A3006 RMK AO2
KECU 140215Z AUTO 32022G32KT 10SM SCT050 SCT060 OVC075 05/00 A3006 RMK AO2
KECU 140155Z AUTO 32023G34KT 10SM SCT029 BKN043 OVC075 05/01 A3006 RMK AO2
KECU 140135Z AUTO 32027G39KT 10SM BKN027 OVC033 05/01 A3006 RMK AO2
KECU 140115Z AUTO 32022G32KT 10SM -UP BKN027 BKN032 OVC038 05/01 A3006 RMK AO2
KECU 140055Z AUTO 31017G26KT 10SM SCT031 BKN042 OVC075 05/01 A3005 RMK AO2
KECU 140035Z AUTO 31022KT 10SM FEW020 SCT027 BKN042 05/02 A3004 RMK AO2
KECU 140015Z AUTO 32023G37KT 8SM -RA BKN021 OVC027 05/02 A3005 RMK AO2
KECU 132355Z AUTO 32031G39KT 10SM BKN023 OVC028 05/02 A3003 RMK AO2
KECU 132335Z AUTO 32028G36KT 9SM -RA BKN022 OVC028 05/02 A3002 RMK AO2
KECU 132315Z AUTO 31024G38KT 8SM -RA BKN023 OVC029 05/02 A3001 RMK AO2
KECU 132255Z AUTO 32020G27KT 10SM BKN020 OVC026 05/02 A3001 RMK AO2
KECU 132235Z AUTO 31019G28KT 10SM -UP OVC021 05/02 A3001 RMK AO2
KECU 132215Z AUTO 31020G34KT 10SM OVC022 05/01 A3001 RMK AO2
KECU 132155Z AUTO 32025G35KT 10SM OVC023 06/01 A3000 RMK AO2
KECU 132135Z AUTO 31026G38KT 10SM OVC023 06/01 A2998 RMK AO2
KECU 132115Z AUTO 32027G40KT 10SM OVC023 06/01 A2996 RMK AO2 LTG DSNT NE
KECU 132055Z AUTO 31028G39KT 10SM OVC024 07/01 A2996 RMK AO2 LTG DSNT NE
KECU 132035Z AUTO 31020G32KT 10SM OVC024 07/01 A2996 RMK AO2 LTG DSNT NE
KECU 132015Z AUTO 31027G36KT 10SM OVC025 07/01 A2995 RMK AO2
KECU 131955Z AUTO 30022G36KT 10SM BKN025 OVC032 07/02 A2994 RMK AO2 LTG DSNT NE AND SE
KECU 131935Z AUTO 29024G35KT 10SM BKN025 BKN032 OVC040 08/02 A2994 RMK AO2
KECU 131915Z AUTO 29027G37KT 10SM FEW033 SCT040 OVC048 10/01 A2993 RMK AO2
KECU 131855Z AUTO 29022G36KT 10SM BKN048 11/M00 A2992 RMK AO2
KECU 131835Z AUTO 30024G34KT 10SM CLR 13/M01 A2990 RMK AO2
KECU 131815Z AUTO 29025G34KT 10SM CLR 13/M03 A2990 RMK AO2 LTG DSNT NE
KECU 131755Z AUTO 28025G34KT 10SM CLR 13/M05 A2990 RMK AO2
KECU 131735Z AUTO 29024G30KT 10SM CLR 13/M04 A2991 RMK AO2
KECU 131715Z AUTO 30024G32KT 10SM CLR 13/M03 A2991 RMK AO2
KECU 131655Z AUTO 29025G33KT 10SM CLR 13/M04 A2991 RMK AO2 LTG DSNT NE
KECU 131635Z AUTO 30024G32KT 10SM CLR 13/M04 A2991 RMK AO2
KECU 131615Z AUTO 30022G33KT 10SM CLR 12/M03 A2991 RMK AO2
KECU 131555Z AUTO 31018G25KT 10SM FEW080 12/01 A2992 RMK AO2
KECU 131535Z AUTO 31014G24KT 10SM FEW060 FEW080 11/03 A2991 RMK AO2
KECU 131515Z AUTO 31019G28KT 10SM SCT060 BKN070 11/03 A2990 RMK AO2
KECU 131455Z AUTO 31019G25KT 10SM FEW065 11/07 A2988 RMK AO2
KECU 131435Z AUTO 29014G20KT 10SM BKN065 10/08 A2987 RMK AO2
KECU 131415Z AUTO 29009KT 10SM FEW065 09/08 A2986 RMK AO2
KECU 131355Z AUTO 28009KT 10SM CLR 08/08 A2984 RMK AO2
KECU 131335Z AUTO 27008KT 9SM CLR 08/08 A2984 RMK AO2
KECU 131315Z AUTO 28007KT 5SM BR CLR 08/08 A2983 RMK AO2
KECU 131255Z AUTO 26007KT 5SM BR CLR 09/09 A2983 RMK AO2
KECU 131235Z AUTO 26008KT 8SM CLR 09/09 A2981 RMK AO2
KECU 131215Z AUTO 25006KT 3/4SM BR BKN001 09/08 A2981 RMK AO2
KECU 131155Z AUTO 27004KT M1/4SM FG OVC001 08/08 A2981 RMK AO2
KECU 131135Z AUTO 25004KT M1/4SM FG OVC001 09/08 A2981 RMK AO2
KECU 131115Z AUTO 25004KT M1/4SM FG OVC001 09/09 A2981 RMK AO2
KECU 131055Z AUTO 24003KT 1/4SM FG OVC002 10/09 A2980 RMK AO2
KECU 131035Z AUTO 22004KT 4SM BR CLR 10/10 A2980 RMK AO2
KECU 131015Z AUTO 19004KT 7SM CLR 11/10 A2981 RMK AO2
KECU 130955Z AUTO 20005KT 8SM CLR 11/10 A2981 RMK AO2 LTG DSNT NE
KECU 130935Z AUTO 20005KT 8SM CLR 11/10 A2982 RMK AO2
KECU 130915Z AUTO 18005KT 7SM CLR 10/10 A2983 RMK AO2 LTG DSNT NE
KECU 130855Z AUTO 19006KT 7SM BKN110 11/10 A2983 RMK AO2 LTG DSNT NE
KECU 130835Z AUTO 18007KT 5SM BR OVC110 11/10 A2983 RMK AO2
KECU 130815Z AUTO 17005KT 2 1/2SM BR BKN110 10/10 A2983 RMK AO2
KECU 130755Z AUTO 22004KT 3SM BR FEW002 BKN110 10/10 A2985 RMK AO2
KECU 130735Z AUTO 00000KT 3/4SM BR OVC002 10/10 A2986 RMK AO2